University of Wyoming, Wyoming
Current Conditions -  °F | °C
As of 6:53 PM on Tuesday 25 Nov 2014 (Local Time) from KLAR Reporting Station
Overcast Overcast  
Wind Chill: 20°   Ceiling: 3700
Heat Index: 33°   Visibility: 10mi
Dew Point: 25°   Wind: 26mph
Humidity: 72%   Direction: 280°W
Pressure: 29.93"   Gusts: 38mph
Location:  41.4218°N, 105.605°W
Report Text: KLAR 260153Z AUTO 28023G33KT 10SM BKN037 OVC049 01/M04 A2993 RMK AO2 PK WND 27033/0129 SLP144 T00061039
Loading
Personal Weather Stations






























Interactive Weather Map New forecast layout! Learn more

10-Day Weather Forecast

Advertisements
Track Severe Weather on mobile